sensor_id;sensor_type;location;lat;lon;timestamp;P1;durP1;ratioP1;P2;durP2;ratioP2
79454;SDS011;68900;52.134;5.420;2023-07-28T00:00:52;17.55;;;7.72;;
79454;SDS011;68900;52.134;5.420;2023-07-28T00:03:18;15.75;;;7.97;;
79454;SDS011;68900;52.134;5.420;2023-07-28T00:05:45;13.82;;;8.40;;
79454;SDS011;68900;52.134;5.420;2023-07-28T00:08:12;14.18;;;7.75;;
79454;SDS011;68900;52.134;5.420;2023-07-28T00:10:41;13.15;;;7.80;;
79454;SDS011;68900;52.134;5.420;2023-07-28T00:13:08;15.32;;;8.32;;
79454;SDS011;68900;52.134;5.420;2023-07-28T00:15:38;18.15;;;8.07;;
79454;SDS011;68900;52.134;5.420;2023-07-28T00:18:05;14.68;;;8.35;;
79454;SDS011;68900;52.134;5.420;2023-07-28T00:20:31;14.38;;;8.63;;
79454;SDS011;68900;52.134;5.420;2023-07-28T00:22:58;18.45;;;8.40;;
79454;SDS011;68900;52.134;5.420;2023-07-28T00:25:28;16.40;;;8.25;;
79454;SDS011;68900;52.134;5.420;2023-07-28T00:27:55;13.90;;;7.15;;
79454;SDS011;68900;52.134;5.420;2023-07-28T00:30:21;12.80;;;7.78;;
79454;SDS011;68900;52.134;5.420;2023-07-28T00:32:49;14.43;;;8.38;;
79454;SDS011;68900;52.134;5.420;2023-07-28T00:35:16;15.10;;;8.18;;
79454;SDS011;68900;52.134;5.420;2023-07-28T00:37:43;11.73;;;6.75;;
79454;SDS011;68900;52.134;5.420;2023-07-28T00:40:10;12.18;;;6.97;;
79454;SDS011;68900;52.134;5.420;2023-07-28T00:42:37;12.15;;;7.38;;
79454;SDS011;68900;52.134;5.420;2023-07-28T00:45:04;13.20;;;7.22;;
79454;SDS011;68900;52.134;5.420;2023-07-28T00:47:31;13.35;;;6.32;;
79454;SDS011;68900;52.134;5.420;2023-07-28T00:49:58;13.80;;;6.35;;
79454;SDS011;68900;52.134;5.420;2023-07-28T00:52:24;14.07;;;6.45;;
79454;SDS011;68900;52.134;5.420;2023-07-28T00:54:51;12.63;;;6.28;;
79454;SDS011;68900;52.134;5.420;2023-07-28T00:57:18;13.27;;;5.85;;
79454;SDS011;68900;52.134;5.420;2023-07-28T00:59:48;14.18;;;6.57;;
79454;SDS011;68900;52.134;5.420;2023-07-28T01:02:17;11.98;;;6.20;;
79454;SDS011;68900;52.134;5.420;2023-07-28T01:04:44;13.98;;;5.82;;
79454;SDS011;68900;52.134;5.420;2023-07-28T01:07:16;13.38;;;5.28;;
79454;SDS011;68900;52.134;5.420;2023-07-28T01:12:27;13.43;;;5.65;;
79454;SDS011;68900;52.134;5.420;2023-07-28T01:14:54;13.95;;;5.88;;
79454;SDS011;68900;52.134;5.420;2023-07-28T01:17:20;10.52;;;5.05;;
79454;SDS011;68900;52.134;5.420;2023-07-28T01:19:51;13.18;;;6.30;;
79454;SDS011;68900;52.134;5.420;2023-07-28T01:25:06;15.00;;;5.35;;
79454;SDS011;68900;52.134;5.420;2023-07-28T01:27:34;12.98;;;5.85;;
79454;SDS011;68900;52.134;5.420;2023-07-28T01:30:03;12.60;;;5.20;;
79454;SDS011;68900;52.134;5.420;2023-07-28T01:32:31;15.75;;;5.50;;
79454;SDS011;68900;52.134;5.420;2023-07-28T01:34:57;14.52;;;5.90;;
79454;SDS011;68900;52.134;5.420;2023-07-28T01:37:24;14.50;;;5.18;;
79454;SDS011;68900;52.134;5.420;2023-07-28T01:39:50;15.70;;;5.65;;
79454;SDS011;68900;52.134;5.420;2023-07-28T01:42:17;16.48;;;5.90;;
79454;SDS011;68900;52.134;5.420;2023-07-28T01:44:44;11.57;;;5.60;;
79454;SDS011;68900;52.134;5.420;2023-07-28T01:47:10;11.90;;;5.80;;
79454;SDS011;68900;52.134;5.420;2023-07-28T01:49:37;13.50;;;5.68;;
79454;SDS011;68900;52.134;5.420;2023-07-28T01:52:03;16.15;;;5.65;;
79454;SDS011;68900;52.134;5.420;2023-07-28T01:54:30;14.82;;;5.85;;
79454;SDS011;68900;52.134;5.420;2023-07-28T01:56:57;16.58;;;4.88;;
79454;SDS011;68900;52.134;5.420;2023-07-28T01:59:23;11.25;;;5.18;;
79454;SDS011;68900;52.134;5.420;2023-07-28T02:01:50;18.58;;;5.97;;
79454;SDS011;68900;52.134;5.420;2023-07-28T02:04:17;14.88;;;5.78;;
79454;SDS011;68900;52.134;5.420;2023-07-28T02:06:44;16.60;;;6.05;;
79454;SDS011;68900;52.134;5.420;2023-07-28T02:09:10;13.45;;;6.22;;
79454;SDS011;68900;52.134;5.420;2023-07-28T02:11:37;14.00;;;6.00;;
79454;SDS011;68900;52.134;5.420;2023-07-28T02:14:03;13.63;;;5.55;;
79454;SDS011;68900;52.134;5.420;2023-07-28T02:16:30;12.07;;;4.95;;
79454;SDS011;68900;52.134;5.420;2023-07-28T02:18:59;13.20;;;5.18;;
79454;SDS011;68900;52.134;5.420;2023-07-28T02:21:25;17.65;;;6.25;;
79454;SDS011;68900;52.134;5.420;2023-07-28T02:23:53;15.95;;;5.50;;
79454;SDS011;68900;52.134;5.420;2023-07-28T02:26:20;14.80;;;5.85;;
79454;SDS011;68900;52.134;5.420;2023-07-28T02:28:47;15.68;;;6.07;;
79454;SDS011;68900;52.134;5.420;2023-07-28T02:31:13;16.38;;;7.28;;
79454;SDS011;68900;52.134;5.420;2023-07-28T02:33:40;18.17;;;6.47;;
79454;SDS011;68900;52.134;5.420;2023-07-28T02:36:06;15.13;;;7.15;;
79454;SDS011;68900;52.134;5.420;2023-07-28T02:38:33;16.45;;;6.50;;
79454;SDS011;68900;52.134;5.420;2023-07-28T02:41:07;23.80;;;8.25;;
79454;SDS011;68900;52.134;5.420;2023-07-28T02:43:34;16.65;;;7.25;;
79454;SDS011;68900;52.134;5.420;2023-07-28T02:46:04;14.80;;;6.88;;
79454;SDS011;68900;52.134;5.420;2023-07-28T02:48:31;19.25;;;7.28;;
79454;SDS011;68900;52.134;5.420;2023-07-28T02:50:57;15.30;;;6.82;;
79454;SDS011;68900;52.134;5.420;2023-07-28T02:53:24;16.55;;;7.03;;
79454;SDS011;68900;52.134;5.420;2023-07-28T02:55:51;20.45;;;7.63;;
79454;SDS011;68900;52.134;5.420;2023-07-28T02:58:17;21.02;;;8.40;;
79454;SDS011;68900;52.134;5.420;2023-07-28T03:00:47;20.92;;;8.05;;
79454;SDS011;68900;52.134;5.420;2023-07-28T03:03:13;17.00;;;6.90;;
79454;SDS011;68900;52.134;5.420;2023-07-28T03:05:40;14.30;;;6.70;;
79454;SDS011;68900;52.134;5.420;2023-07-28T03:08:07;18.98;;;8.75;;
79454;SDS011;68900;52.134;5.420;2023-07-28T03:10:33;22.90;;;8.75;;
79454;SDS011;68900;52.134;5.420;2023-07-28T03:13:00;22.00;;;8.35;;
79454;SDS011;68900;52.134;5.420;2023-07-28T03:15:27;21.17;;;8.45;;
79454;SDS011;68900;52.134;5.420;2023-07-28T03:17:53;20.88;;;8.63;;
79454;SDS011;68900;52.134;5.420;2023-07-28T03:20:21;18.65;;;8.38;;
79454;SDS011;68900;52.134;5.420;2023-07-28T03:22:48;18.60;;;7.88;;
79454;SDS011;68900;52.134;5.420;2023-07-28T03:25:14;25.20;;;9.05;;
79454;SDS011;68900;52.134;5.420;2023-07-28T03:27:41;23.52;;;8.65;;
79454;SDS011;68900;52.134;5.420;2023-07-28T03:30:07;20.90;;;8.48;;
79454;SDS011;68900;52.134;5.420;2023-07-28T03:32:40;23.25;;;9.05;;
79454;SDS011;68900;52.134;5.420;2023-07-28T03:35:06;21.73;;;9.07;;
79454;SDS011;68900;52.134;5.420;2023-07-28T03:37:34;24.02;;;9.57;;
79454;SDS011;68900;52.134;5.420;2023-07-28T03:40:01;19.77;;;8.40;;
79454;SDS011;68900;52.134;5.420;2023-07-28T03:42:27;25.45;;;9.27;;
79454;SDS011;68900;52.134;5.420;2023-07-28T03:44:54;24.15;;;9.05;;
79454;SDS011;68900;52.134;5.420;2023-07-28T03:47:24;25.75;;;9.68;;
79454;SDS011;68900;52.134;5.420;2023-07-28T03:49:50;22.90;;;9.10;;
79454;SDS011;68900;52.134;5.420;2023-07-28T03:52:17;23.30;;;10.02;;
79454;SDS011;68900;52.134;5.420;2023-07-28T03:54:43;24.23;;;9.35;;
79454;SDS011;68900;52.134;5.420;2023-07-28T03:57:10;26.25;;;9.63;;
79454;SDS011;68900;52.134;5.420;2023-07-28T03:59:36;22.85;;;9.70;;
79454;SDS011;68900;52.134;5.420;2023-07-28T04:02:03;25.00;;;9.48;;
79454;SDS011;68900;52.134;5.420;2023-07-28T04:04:30;21.02;;;9.18;;
79454;SDS011;68900;52.134;5.420;2023-07-28T04:06:56;30.35;;;10.15;;
79454;SDS011;68900;52.134;5.420;2023-07-28T04:09:23;25.17;;;10.63;;
79454;SDS011;68900;52.134;5.420;2023-07-28T04:11:50;24.90;;;10.23;;
79454;SDS011;68900;52.134;5.420;2023-07-28T04:14:17;30.52;;;10.07;;
79454;SDS011;68900;52.134;5.420;2023-07-28T04:16:43;25.40;;;9.23;;
79454;SDS011;68900;52.134;5.420;2023-07-28T04:19:10;22.13;;;8.98;;
79454;SDS011;68900;52.134;5.420;2023-07-28T04:21:36;28.85;;;11.32;;
79454;SDS011;68900;52.134;5.420;2023-07-28T04:24:07;27.90;;;10.75;;
79454;SDS011;68900;52.134;5.420;2023-07-28T04:26:34;36.08;;;11.00;;
79454;SDS011;68900;52.134;5.420;2023-07-28T04:29:01;27.23;;;10.18;;
79454;SDS011;68900;52.134;5.420;2023-07-28T04:31:28;26.17;;;10.93;;
79454;SDS011;68900;52.134;5.420;2023-07-28T04:33:54;32.65;;;11.38;;
79454;SDS011;68900;52.134;5.420;2023-07-28T04:36:21;27.63;;;10.35;;
79454;SDS011;68900;52.134;5.420;2023-07-28T04:38:47;25.63;;;10.25;;
79454;SDS011;68900;52.134;5.420;2023-07-28T04:41:14;29.17;;;10.25;;
79454;SDS011;68900;52.134;5.420;2023-07-28T04:43:41;26.92;;;10.88;;
79454;SDS011;68900;52.134;5.420;2023-07-28T04:46:08;25.92;;;10.10;;
79454;SDS011;68900;52.134;5.420;2023-07-28T04:48:43;23.20;;;10.02;;
79454;SDS011;68900;52.134;5.420;2023-07-28T04:51:10;24.27;;;9.15;;
79454;SDS011;68900;52.134;5.420;2023-07-28T04:53:36;28.17;;;10.80;;
79454;SDS011;68900;52.134;5.420;2023-07-28T04:56:03;27.00;;;10.38;;
79454;SDS011;68900;52.134;5.420;2023-07-28T04:58:36;35.80;;;12.05;;
79454;SDS011;68900;52.134;5.420;2023-07-28T05:01:02;30.58;;;11.57;;
79454;SDS011;68900;52.134;5.420;2023-07-28T05:03:30;28.65;;;11.32;;
79454;SDS011;68900;52.134;5.420;2023-07-28T05:05:56;25.15;;;10.90;;
79454;SDS011;68900;52.134;5.420;2023-07-28T05:08:23;31.73;;;11.52;;
79454;SDS011;68900;52.134;5.420;2023-07-28T05:10:50;25.42;;;10.88;;
79454;SDS011;68900;52.134;5.420;2023-07-28T05:13:16;28.42;;;10.38;;
79454;SDS011;68900;52.134;5.420;2023-07-28T05:15:43;37.20;;;11.32;;
79454;SDS011;68900;52.134;5.420;2023-07-28T05:18:10;27.90;;;10.23;;
79454;SDS011;68900;52.134;5.420;2023-07-28T05:20:36;25.88;;;9.70;;
79454;SDS011;68900;52.134;5.420;2023-07-28T05:23:11;29.50;;;9.77;;
79454;SDS011;68900;52.134;5.420;2023-07-28T05:25:38;26.55;;;9.68;;
79454;SDS011;68900;52.134;5.420;2023-07-28T05:28:04;26.42;;;10.85;;
79454;SDS011;68900;52.134;5.420;2023-07-28T05:30:31;27.30;;;10.00;;
79454;SDS011;68900;52.134;5.420;2023-07-28T05:32:58;30.77;;;11.55;;
79454;SDS011;68900;52.134;5.420;2023-07-28T05:35:24;24.02;;;8.95;;
79454;SDS011;68900;52.134;5.420;2023-07-28T05:37:51;23.80;;;9.80;;
79454;SDS011;68900;52.134;5.420;2023-07-28T05:40:20;31.05;;;9.70;;
79454;SDS011;68900;52.134;5.420;2023-07-28T05:42:47;27.45;;;11.02;;
79454;SDS011;68900;52.134;5.420;2023-07-28T05:45:13;22.83;;;8.40;;
79454;SDS011;68900;52.134;5.420;2023-07-28T05:47:43;24.45;;;10.35;;
79454;SDS011;68900;52.134;5.420;2023-07-28T05:50:10;24.00;;;9.38;;
79454;SDS011;68900;52.134;5.420;2023-07-28T05:52:36;22.95;;;10.43;;
79454;SDS011;68900;52.134;5.420;2023-07-28T05:55:03;17.27;;;8.77;;
79454;SDS011;68900;52.134;5.420;2023-07-28T05:57:29;22.17;;;8.70;;
79454;SDS011;68900;52.134;5.420;2023-07-28T05:59:57;21.95;;;9.07;;
79454;SDS011;68900;52.134;5.420;2023-07-28T06:02:23;18.65;;;8.38;;
79454;SDS011;68900;52.134;5.420;2023-07-28T06:04:50;21.50;;;8.85;;
79454;SDS011;68900;52.134;5.420;2023-07-28T06:07:16;20.90;;;8.57;;
79454;SDS011;68900;52.134;5.420;2023-07-28T06:09:43;21.85;;;9.00;;
79454;SDS011;68900;52.134;5.420;2023-07-28T06:12:10;19.80;;;8.32;;
79454;SDS011;68900;52.134;5.420;2023-07-28T06:14:36;21.13;;;9.25;;
79454;SDS011;68900;52.134;5.420;2023-07-28T06:17:03;19.40;;;8.75;;
79454;SDS011;68900;52.134;5.420;2023-07-28T06:19:30;20.38;;;9.20;;
79454;SDS011;68900;52.134;5.420;2023-07-28T06:21:56;23.73;;;9.50;;
79454;SDS011;68900;52.134;5.420;2023-07-28T06:24:23;20.25;;;8.90;;
79454;SDS011;68900;52.134;5.420;2023-07-28T06:26:50;22.17;;;9.00;;
79454;SDS011;68900;52.134;5.420;2023-07-28T06:29:17;22.77;;;8.85;;
79454;SDS011;68900;52.134;5.420;2023-07-28T06:31:46;17.85;;;8.18;;
79454;SDS011;68900;52.134;5.420;2023-07-28T06:34:37;18.98;;;8.65;;
79454;SDS011;68900;52.134;5.420;2023-07-28T06:37:03;18.75;;;8.40;;
79454;SDS011;68900;52.134;5.420;2023-07-28T06:39:30;18.05;;;8.27;;
79454;SDS011;68900;52.134;5.420;2023-07-28T06:41:56;17.08;;;7.95;;
79454;SDS011;68900;52.134;5.420;2023-07-28T06:44:23;18.73;;;8.07;;
79454;SDS011;68900;52.134;5.420;2023-07-28T06:46:50;18.95;;;8.75;;
79454;SDS011;68900;52.134;5.420;2023-07-28T06:49:16;20.45;;;8.23;;
79454;SDS011;68900;52.134;5.420;2023-07-28T06:51:43;17.67;;;7.57;;
79454;SDS011;68900;52.134;5.420;2023-07-28T06:54:10;19.10;;;8.40;;
79454;SDS011;68900;52.134;5.420;2023-07-28T06:56:39;18.88;;;8.38;;
79454;SDS011;68900;52.134;5.420;2023-07-28T06:59:06;16.02;;;8.45;;
79454;SDS011;68900;52.134;5.420;2023-07-28T07:01:44;22.00;;;9.45;;
79454;SDS011;68900;52.134;5.420;2023-07-28T07:04:13;17.08;;;8.77;;
79454;SDS011;68900;52.134;5.420;2023-07-28T07:06:40;22.85;;;9.23;;
79454;SDS011;68900;52.134;5.420;2023-07-28T07:09:07;22.10;;;8.63;;
79454;SDS011;68900;52.134;5.420;2023-07-28T07:11:35;15.48;;;8.13;;
79454;SDS011;68900;52.134;5.420;2023-07-28T07:14:02;22.88;;;9.68;;
79454;SDS011;68900;52.134;5.420;2023-07-28T07:16:29;18.85;;;9.15;;
79454;SDS011;68900;52.134;5.420;2023-07-28T07:18:55;18.58;;;8.90;;
79454;SDS011;68900;52.134;5.420;2023-07-28T07:21:22;20.30;;;9.50;;
79454;SDS011;68900;52.134;5.420;2023-07-28T07:23:48;20.17;;;9.10;;
79454;SDS011;68900;52.134;5.420;2023-07-28T07:26:15;17.98;;;9.57;;
79454;SDS011;68900;52.134;5.420;2023-07-28T07:28:44;18.38;;;8.93;;
79454;SDS011;68900;52.134;5.420;2023-07-28T07:31:12;18.58;;;9.27;;
79454;SDS011;68900;52.134;5.420;2023-07-28T07:33:40;21.52;;;9.80;;
79454;SDS011;68900;52.134;5.420;2023-07-28T07:36:11;18.77;;;8.95;;
79454;SDS011;68900;52.134;5.420;2023-07-28T07:38:39;21.75;;;9.63;;
79454;SDS011;68900;52.134;5.420;2023-07-28T07:41:07;21.02;;;9.95;;
79454;SDS011;68900;52.134;5.420;2023-07-28T07:43:35;19.33;;;8.65;;
79454;SDS011;68900;52.134;5.420;2023-07-28T07:46:08;19.95;;;8.63;;
79454;SDS011;68900;52.134;5.420;2023-07-28T07:48:48;19.70;;;9.52;;
79454;SDS011;68900;52.134;5.420;2023-07-28T07:51:17;16.85;;;8.60;;
79454;SDS011;68900;52.134;5.420;2023-07-28T07:53:44;20.38;;;8.32;;
79454;SDS011;68900;52.134;5.420;2023-07-28T07:56:11;20.65;;;8.27;;
79454;SDS011;68900;52.134;5.420;2023-07-28T07:58:38;15.85;;;7.65;;
79454;SDS011;68900;52.134;5.420;2023-07-28T08:01:05;17.08;;;7.30;;
79454;SDS011;68900;52.134;5.420;2023-07-28T08:03:32;17.60;;;7.47;;
79454;SDS011;68900;52.134;5.420;2023-07-28T08:05:58;15.60;;;6.63;;
79454;SDS011;68900;52.134;5.420;2023-07-28T08:08:25;18.30;;;7.05;;
79454;SDS011;68900;52.134;5.420;2023-07-28T08:10:54;15.77;;;6.55;;
79454;SDS011;68900;52.134;5.420;2023-07-28T08:13:21;15.38;;;6.30;;
79454;SDS011;68900;52.134;5.420;2023-07-28T08:15:54;15.18;;;6.05;;
79454;SDS011;68900;52.134;5.420;2023-07-28T08:18:21;12.40;;;5.90;;
79454;SDS011;68900;52.134;5.420;2023-07-28T08:20:47;17.65;;;6.50;;
79454;SDS011;68900;52.134;5.420;2023-07-28T08:23:14;12.95;;;6.10;;
79454;SDS011;68900;52.134;5.420;2023-07-28T08:25:40;14.93;;;6.47;;
79454;SDS011;68900;52.134;5.420;2023-07-28T08:28:07;14.07;;;6.40;;
79454;SDS011;68900;52.134;5.420;2023-07-28T08:30:34;14.30;;;5.78;;
79454;SDS011;68900;52.134;5.420;2023-07-28T08:33:00;13.43;;;5.43;;
79454;SDS011;68900;52.134;5.420;2023-07-28T08:35:28;9.23;;;4.63;;
79454;SDS011;68900;52.134;5.420;2023-07-28T08:37:57;12.35;;;4.63;;
79454;SDS011;68900;52.134;5.420;2023-07-28T08:40:36;8.23;;;3.88;;
79454;SDS011;68900;52.134;5.420;2023-07-28T08:43:02;12.60;;;3.80;;
79454;SDS011;68900;52.134;5.420;2023-07-28T08:45:29;11.43;;;3.75;;
79454;SDS011;68900;52.134;5.420;2023-07-28T08:47:56;9.82;;;3.60;;
79454;SDS011;68900;52.134;5.420;2023-07-28T08:50:23;9.95;;;3.40;;
79454;SDS011;68900;52.134;5.420;2023-07-28T08:52:49;9.13;;;3.38;;
79454;SDS011;68900;52.134;5.420;2023-07-28T08:55:16;10.90;;;3.25;;
79454;SDS011;68900;52.134;5.420;2023-07-28T08:57:43;7.65;;;2.78;;
79454;SDS011;68900;52.134;5.420;2023-07-28T09:00:10;11.68;;;3.33;;
79454;SDS011;68900;52.134;5.420;2023-07-28T09:02:41;11.82;;;2.80;;
79454;SDS011;68900;52.134;5.420;2023-07-28T09:05:29;11.65;;;3.40;;
79454;SDS011;68900;52.134;5.420;2023-07-28T09:07:59;10.02;;;3.40;;
79454;SDS011;68900;52.134;5.420;2023-07-28T09:10:27;10.15;;;3.13;;
79454;SDS011;68900;52.134;5.420;2023-07-28T09:13:10;9.55;;;2.72;;
79454;SDS011;68900;52.134;5.420;2023-07-28T09:15:42;6.20;;;2.90;;
79454;SDS011;68900;52.134;5.420;2023-07-28T09:18:13;10.75;;;3.25;;
79454;SDS011;68900;52.134;5.420;2023-07-28T09:20:42;9.13;;;2.92;;
79454;SDS011;68900;52.134;5.420;2023-07-28T09:23:10;9.00;;;2.92;;
79454;SDS011;68900;52.134;5.420;2023-07-28T09:25:37;9.18;;;3.00;;
79454;SDS011;68900;52.134;5.420;2023-07-28T09:28:04;10.40;;;2.60;;
79454;SDS011;68900;52.134;5.420;2023-07-28T09:30:47;6.85;;;2.75;;
79454;SDS011;68900;52.134;5.420;2023-07-28T09:33:29;7.90;;;2.33;;
79454;SDS011;68900;52.134;5.420;2023-07-28T09:35:57;8.38;;;2.50;;
79454;SDS011;68900;52.134;5.420;2023-07-28T09:38:35;6.63;;;2.22;;
79454;SDS011;68900;52.134;5.420;2023-07-28T09:41:03;7.43;;;2.58;;
79454;SDS011;68900;52.134;5.420;2023-07-28T09:43:34;6.75;;;2.15;;
79454;SDS011;68900;52.134;5.420;2023-07-28T09:46:04;7.30;;;2.10;;
79454;SDS011;68900;52.134;5.420;2023-07-28T09:48:33;5.40;;;2.55;;
79454;SDS011;68900;52.134;5.420;2023-07-28T09:51:06;5.97;;;2.40;;
79454;SDS011;68900;52.134;5.420;2023-07-28T09:53:40;8.73;;;2.70;;
79454;SDS011;68900;52.134;5.420;2023-07-28T09:56:14;6.95;;;2.70;;
79454;SDS011;68900;52.134;5.420;2023-07-28T09:58:49;7.88;;;2.45;;
79454;SDS011;68900;52.134;5.420;2023-07-28T10:01:23;6.82;;;1.92;;
79454;SDS011;68900;52.134;5.420;2023-07-28T10:03:50;7.45;;;2.17;;
79454;SDS011;68900;52.134;5.420;2023-07-28T10:06:18;9.35;;;2.50;;
79454;SDS011;68900;52.134;5.420;2023-07-28T10:11:15;7.97;;;2.50;;
79454;SDS011;68900;52.134;5.420;2023-07-28T10:13:43;7.68;;;3.05;;
79454;SDS011;68900;52.134;5.420;2023-07-28T10:16:12;8.13;;;2.83;;
79454;SDS011;68900;52.134;5.420;2023-07-28T10:18:41;7.03;;;2.92;;
79454;SDS011;68900;52.134;5.420;2023-07-28T10:21:10;8.00;;;3.15;;
79454;SDS011;68900;52.134;5.420;2023-07-28T10:23:42;6.00;;;3.05;;
79454;SDS011;68900;52.134;5.420;2023-07-28T10:26:10;5.65;;;2.90;;
79454;SDS011;68900;52.134;5.420;2023-07-28T10:28:37;7.50;;;3.15;;
79454;SDS011;68900;52.134;5.420;2023-07-28T10:31:07;7.50;;;3.55;;
79454;SDS011;68900;52.134;5.420;2023-07-28T10:33:39;7.30;;;3.10;;
79454;SDS011;68900;52.134;5.420;2023-07-28T10:38:42;6.20;;;2.63;;
79454;SDS011;68900;52.134;5.420;2023-07-28T10:41:18;8.68;;;2.92;;
79454;SDS011;68900;52.134;5.420;2023-07-28T10:43:46;5.75;;;3.05;;
79454;SDS011;68900;52.134;5.420;2023-07-28T10:46:14;5.68;;;2.65;;
79454;SDS011;68900;52.134;5.420;2023-07-28T10:48:44;7.63;;;2.90;;
79454;SDS011;68900;52.134;5.420;2023-07-28T10:51:24;7.78;;;3.42;;
79454;SDS011;68900;52.134;5.420;2023-07-28T10:56:21;7.82;;;2.75;;
79454;SDS011;68900;52.134;5.420;2023-07-28T10:58:55;5.90;;;2.83;;
79454;SDS011;68900;52.134;5.420;2023-07-28T11:01:35;7.07;;;3.15;;
79454;SDS011;68900;52.134;5.420;2023-07-28T11:04:14;6.75;;;3.30;;
79454;SDS011;68900;52.134;5.420;2023-07-28T11:06:48;6.38;;;2.92;;
79454;SDS011;68900;52.134;5.420;2023-07-28T11:09:16;8.50;;;2.90;;
79454;SDS011;68900;52.134;5.420;2023-07-28T11:11:45;8.00;;;3.20;;
79454;SDS011;68900;52.134;5.420;2023-07-28T11:14:14;7.20;;;3.05;;
79454;SDS011;68900;52.134;5.420;2023-07-28T11:16:43;10.25;;;3.75;;
79454;SDS011;68900;52.134;5.420;2023-07-28T11:19:16;8.15;;;3.50;;
79454;SDS011;68900;52.134;5.420;2023-07-28T11:21:52;8.93;;;3.53;;
79454;SDS011;68900;52.134;5.420;2023-07-28T11:24:20;8.38;;;3.65;;
79454;SDS011;68900;52.134;5.420;2023-07-28T11:27:01;7.78;;;3.65;;
79454;SDS011;68900;52.134;5.420;2023-07-28T11:29:53;9.38;;;3.45;;
79454;SDS011;68900;52.134;5.420;2023-07-28T11:32:23;6.78;;;2.83;;
79454;SDS011;68900;52.134;5.420;2023-07-28T11:34:50;8.48;;;3.50;;
79454;SDS011;68900;52.134;5.420;2023-07-28T11:37:17;12.98;;;4.53;;
79454;SDS011;68900;52.134;5.420;2023-07-28T11:39:44;11.73;;;4.43;;
79454;SDS011;68900;52.134;5.420;2023-07-28T11:42:20;10.02;;;4.15;;
79454;SDS011;68900;52.134;5.420;2023-07-28T11:45:04;12.15;;;4.75;;
79454;SDS011;68900;52.134;5.420;2023-07-28T11:47:34;13.85;;;5.35;;
79454;SDS011;68900;52.134;5.420;2023-07-28T11:50:00;11.88;;;5.22;;
79454;SDS011;68900;52.134;5.420;2023-07-28T11:52:30;10.45;;;5.32;;
79454;SDS011;68900;52.134;5.420;2023-07-28T11:55:06;9.65;;;4.38;;
79454;SDS011;68900;52.134;5.420;2023-07-28T11:57:33;9.70;;;4.82;;
79454;SDS011;68900;52.134;5.420;2023-07-28T12:00:29;13.05;;;5.35;;
79454;SDS011;68900;52.134;5.420;2023-07-28T12:05:38;8.80;;;4.57;;
79454;SDS011;68900;52.134;5.420;2023-07-28T12:08:32;10.55;;;4.60;;
79454;SDS011;68900;52.134;5.420;2023-07-28T12:10:59;9.63;;;4.28;;
79454;SDS011;68900;52.134;5.420;2023-07-28T12:13:30;7.18;;;3.55;;
79454;SDS011;68900;52.134;5.420;2023-07-28T12:15:57;8.98;;;3.55;;
79454;SDS011;68900;52.134;5.420;2023-07-28T12:18:30;12.05;;;3.97;;
79454;SDS011;68900;52.134;5.420;2023-07-28T12:21:00;9.70;;;3.97;;
79454;SDS011;68900;52.134;5.420;2023-07-28T12:23:27;10.55;;;3.83;;
79454;SDS011;68900;52.134;5.420;2023-07-28T12:25:57;6.50;;;3.83;;
79454;SDS011;68900;52.134;5.420;2023-07-28T12:28:38;8.02;;;3.80;;
79454;SDS011;68900;52.134;5.420;2023-07-28T12:31:07;8.95;;;3.65;;
79454;SDS011;68900;52.134;5.420;2023-07-28T12:33:34;6.30;;;3.13;;
79454;SDS011;68900;52.134;5.420;2023-07-28T12:36:04;6.18;;;2.80;;
79454;SDS011;68900;52.134;5.420;2023-07-28T12:38:35;6.85;;;2.65;;
79454;SDS011;68900;52.134;5.420;2023-07-28T12:41:04;6.38;;;2.65;;
79454;SDS011;68900;52.134;5.420;2023-07-28T12:43:35;5.53;;;2.58;;
79454;SDS011;68900;52.134;5.420;2023-07-28T12:46:04;6.75;;;2.97;;
79454;SDS011;68900;52.134;5.420;2023-07-28T12:48:36;6.05;;;2.53;;
79454;SDS011;68900;52.134;5.420;2023-07-28T12:51:13;8.15;;;3.10;;
79454;SDS011;68900;52.134;5.420;2023-07-28T12:56:27;5.70;;;2.42;;
79454;SDS011;68900;52.134;5.420;2023-07-28T12:58:56;7.75;;;2.33;;
79454;SDS011;68900;52.134;5.420;2023-07-28T13:01:25;5.38;;;2.13;;
79454;SDS011;68900;52.134;5.420;2023-07-28T13:03:52;7.55;;;2.20;;
79454;SDS011;68900;52.134;5.420;2023-07-28T13:06:19;4.70;;;2.10;;
79454;SDS011;68900;52.134;5.420;2023-07-28T13:08:47;7.65;;;2.55;;
79454;SDS011;68900;52.134;5.420;2023-07-28T13:11:16;6.78;;;2.28;;
79454;SDS011;68900;52.134;5.420;2023-07-28T13:13:43;5.60;;;2.55;;
79454;SDS011;68900;52.134;5.420;2023-07-28T13:16:10;7.45;;;2.50;;
79454;SDS011;68900;52.134;5.420;2023-07-28T13:18:50;6.72;;;2.58;;
79454;SDS011;68900;52.134;5.420;2023-07-28T13:21:18;6.18;;;2.50;;
79454;SDS011;68900;52.134;5.420;2023-07-28T13:23:47;6.13;;;3.17;;
79454;SDS011;68900;52.134;5.420;2023-07-28T13:26:13;6.20;;;2.50;;
79454;SDS011;68900;52.134;5.420;2023-07-28T13:28:40;7.63;;;2.95;;
79454;SDS011;68900;52.134;5.420;2023-07-28T13:31:13;5.50;;;2.80;;
79454;SDS011;68900;52.134;5.420;2023-07-28T13:33:41;7.65;;;3.40;;
79454;SDS011;68900;52.134;5.420;2023-07-28T13:36:08;7.72;;;2.85;;
79454;SDS011;68900;52.134;5.420;2023-07-28T13:38:35;7.32;;;2.55;;
79454;SDS011;68900;52.134;5.420;2023-07-28T13:41:38;7.78;;;2.78;;
79454;SDS011;68900;52.134;5.420;2023-07-28T13:44:04;5.38;;;2.33;;
79454;SDS011;68900;52.134;5.420;2023-07-28T13:46:31;5.72;;;2.58;;
79454;SDS011;68900;52.134;5.420;2023-07-28T13:48:57;6.63;;;3.80;;
79454;SDS011;68900;52.134;5.420;2023-07-28T13:51:33;7.40;;;2.88;;
79454;SDS011;68900;52.134;5.420;2023-07-28T13:54:20;5.70;;;3.13;;
79454;SDS011;68900;52.134;5.420;2023-07-28T13:56:49;6.90;;;2.85;;
79454;SDS011;68900;52.134;5.420;2023-07-28T13:59:19;7.85;;;2.88;;
79454;SDS011;68900;52.134;5.420;2023-07-28T14:01:46;6.13;;;2.78;;
79454;SDS011;68900;52.134;5.420;2023-07-28T14:04:14;6.03;;;2.78;;
79454;SDS011;68900;52.134;5.420;2023-07-28T14:06:40;6.13;;;2.95;;
79454;SDS011;68900;52.134;5.420;2023-07-28T14:09:07;6.30;;;2.88;;
79454;SDS011;68900;52.134;5.420;2023-07-28T14:11:33;8.07;;;3.00;;
79454;SDS011;68900;52.134;5.420;2023-07-28T14:14:09;4.97;;;2.60;;
79454;SDS011;68900;52.134;5.420;2023-07-28T14:16:39;5.65;;;2.58;;
79454;SDS011;68900;52.134;5.420;2023-07-28T14:19:11;5.55;;;2.63;;
79454;SDS011;68900;52.134;5.420;2023-07-28T14:21:42;6.43;;;2.40;;
79454;SDS011;68900;52.134;5.420;2023-07-28T14:24:09;6.18;;;2.90;;
79454;SDS011;68900;52.134;5.420;2023-07-28T14:26:40;6.07;;;2.80;;
79454;SDS011;68900;52.134;5.420;2023-07-28T14:29:06;6.97;;;2.65;;
79454;SDS011;68900;52.134;5.420;2023-07-28T14:31:33;5.40;;;2.47;;
79454;SDS011;68900;52.134;5.420;2023-07-28T14:34:00;6.10;;;2.40;;
79454;SDS011;68900;52.134;5.420;2023-07-28T14:36:30;5.25;;;2.55;;
79454;SDS011;68900;52.134;5.420;2023-07-28T14:38:59;6.88;;;2.90;;
79454;SDS011;68900;52.134;5.420;2023-07-28T14:41:27;5.47;;;2.60;;
79454;SDS011;68900;52.134;5.420;2023-07-28T14:43:53;4.60;;;2.65;;
79454;SDS011;68900;52.134;5.420;2023-07-28T14:46:20;6.80;;;3.00;;
79454;SDS011;68900;52.134;5.420;2023-07-28T14:48:48;6.88;;;3.33;;
79454;SDS011;68900;52.134;5.420;2023-07-28T14:51:16;6.55;;;3.03;;
79454;SDS011;68900;52.134;5.420;2023-07-28T14:53:44;5.82;;;2.85;;
79454;SDS011;68900;52.134;5.420;2023-07-28T14:56:14;5.75;;;3.00;;
79454;SDS011;68900;52.134;5.420;2023-07-28T14:58:41;6.50;;;2.75;;
79454;SDS011;68900;52.134;5.420;2023-07-28T15:01:11;7.57;;;2.67;;
79454;SDS011;68900;52.134;5.420;2023-07-28T15:03:38;8.00;;;3.35;;
79454;SDS011;68900;52.134;5.420;2023-07-28T15:06:07;6.68;;;3.15;;